Time;durP1;ratioP1;P1;durP2;ratioP2;P2;SDS_P1;SDS_P2;PMS_P1;PMS_P2;Temp;Humidity;BMP_temperature;BMP_pressure;BME280_temperature;BME280_humidity;BME280_pressure;Samples;Min_cycle;Max_cycle;Signal;HPM_P1;HPM_P2
2022/06/18 00:00:27;;;;;;;6.20;4.65;;;22.10;78.80;;;;;;4956142;28;91957;-72
2022/06/18 00:02:54;;;;;;;6.57;5.63;;;22.00;79.60;;;;;;4956810;28;92590;-71
2022/06/18 00:05:21;;;;;;;5.32;3.97;;;22.00;79.00;;;;;;4955708;28;93043;-71
2022/06/18 00:07:52;;;;;;;6.75;6.05;;;22.00;79.10;;;;;;4956142;28;94760;-71
2022/06/18 00:10:23;;;;;;;6.32;5.82;;;22.00;79.30;;;;;;4957210;28;92969;-71
2022/06/18 00:15:40;;;;;;;6.47;5.93;;;21.90;79.70;;;;;;4956825;28;92802;-71
2022/06/18 00:18:12;;;;;;;6.30;5.72;;;21.80;80.00;;;;;;4939658;28;92566;-71
2022/06/18 00:20:40;;;;;;;7.07;5.40;;;21.80;80.20;;;;;;4955610;28;92536;-71
2022/06/18 00:23:13;;;;;;;5.22;4.72;;;21.80;80.40;;;;;;4955574;28;93224;-71
2022/06/18 00:25:43;;;;;;;7.05;5.07;;;21.70;80.60;;;;;;4957336;28;93060;-71
2022/06/18 00:28:19;;;;;;;5.70;5.18;;;21.70;80.80;;;;;;4955667;28;92927;-71
2022/06/18 00:30:47;;;;;;;7.80;6.03;;;21.60;81.20;;;;;;4955352;28;92450;-71
2022/06/18 00:33:15;;;;;;;5.53;5.13;;;21.60;81.50;;;;;;4953817;28;98650;-71
2022/06/18 00:35:43;;;;;;;5.70;4.82;;;21.60;81.80;;;;;;4938770;28;108235;-71
2022/06/18 00:38:33;;;;;;;6.63;6.03;;;21.50;82.60;;;;;;4956784;28;92455;-71
2022/06/18 00:41:01;;;;;;;6.30;5.70;;;21.60;82.20;;;;;;4939073;28;92524;-71
2022/06/18 00:43:38;;;;;;;6.07;5.25;;;21.50;82.50;;;;;;4955143;28;93201;-71
2022/06/18 00:46:22;;;;;;;6.82;6.13;;;21.50;82.80;;;;;;4955246;28;95106;-71
2022/06/18 00:48:57;;;;;;;5.30;4.80;;;21.40;83.00;;;;;;4955221;28;92674;-71
2022/06/18 00:51:31;;;;;;;5.82;5.25;;;21.40;83.20;;;;;;4955266;28;91701;-71
2022/06/18 00:54:14;;;;;;;6.57;6.13;;;21.30;83.30;;;;;;4956557;28;93269;-71
2022/06/18 00:57:00;;;;;;;5.43;4.93;;;21.40;83.70;;;;;;4954368;28;95582;-71
2022/06/18 00:59:34;;;;;;;5.97;5.20;;;21.20;83.90;;;;;;4953523;28;94915;-71
2022/06/18 01:02:02;;;;;;;5.95;5.00;;;21.20;84.30;;;;;;4956397;28;92440;-71
2022/06/18 01:04:36;;;;;;;5.97;5.43;;;21.10;84.40;;;;;;4954671;28;95191;-71
2022/06/18 01:07:22;;;;;;;6.65;6.07;;;21.20;84.90;;;;;;4954737;28;95685;-71
2022/06/18 01:09:52;;;;;;;6.13;5.40;;;21.10;85.20;;;;;;4954873;28;92489;-71
2022/06/18 01:12:21;;;;;;;7.10;6.43;;;21.00;85.40;;;;;;4938815;28;92602;-71
2022/06/18 01:15:00;;;;;;;7.43;5.13;;;21.00;85.70;;;;;;4955893;28;93051;-71
2022/06/18 01:17:31;;;;;;;5.97;5.47;;;21.10;85.90;;;;;;4954854;28;93774;-71
2022/06/18 01:20:00;;;;;;;7.00;5.68;;;21.00;86.00;;;;;;4938532;28;92439;-71
2022/06/18 01:22:31;;;;;;;7.65;6.55;;;21.00;86.30;;;;;;4954660;28;92452;-71
2022/06/18 01:25:05;;;;;;;8.38;6.55;;;21.00;86.60;;;;;;4953468;28;97778;-71
2022/06/18 01:27:35;;;;;;;10.40;5.80;;;20.90;86.80;;;;;;4954577;28;97404;-71
2022/06/18 01:30:14;;;;;;;6.93;6.18;;;20.90;87.10;;;;;;4954251;28;92448;-71
2022/06/18 01:32:43;;;;;;;8.50;6.47;;;21.00;87.20;;;;;;4954408;28;92493;-71
2022/06/18 01:35:12;;;;;;;7.90;7.13;;;20.90;87.50;;;;;;4954542;28;95148;-71
2022/06/18 01:37:53;;;;;;;7.33;6.13;;;20.90;87.70;;;;;;4954489;28;94978;-71
2022/06/18 01:40:35;;;;;;;7.35;6.60;;;20.90;88.00;;;;;;4954486;28;92553;-71
2022/06/18 01:43:05;;;;;;;6.45;5.85;;;20.90;88.20;;;;;;4954596;28;92330;-71
2022/06/18 01:45:35;;;;;;;7.82;6.43;;;20.80;88.40;;;;;;4954010;28;95744;-71
2022/06/18 01:48:19;;;;;;;9.00;7.60;;;20.80;88.60;;;;;;4954330;28;96113;-71
2022/06/18 01:51:26;;;;;;;9.32;7.30;;;20.90;88.80;;;;;;4936832;28;94854;-71
2022/06/18 01:53:58;;;;;;;9.65;7.43;;;20.90;89.10;;;;;;4957928;28;92632;-71
2022/06/18 01:56:30;;;;;;;9.80;8.82;;;20.80;89.30;;;;;;4938057;28;95231;-71
2022/06/18 01:59:03;;;;;;;12.23;8.05;;;20.80;89.40;;;;;;4954163;28;95420;-71
2022/06/18 02:01:40;;;;;;;9.02;7.03;;;20.80;89.60;;;;;;4953725;28;92414;-71
2022/06/18 02:04:07;;;;;;;8.02;7.10;;;20.70;89.70;;;;;;4938502;28;92524;-71
2022/06/18 02:06:37;;;;;;;8.07;7.32;;;20.70;89.90;;;;;;4953918;28;94172;-71
2022/06/18 02:09:12;;;;;;;8.05;7.35;;;20.70;89.90;;;;;;4956394;28;92914;-71
2022/06/18 02:11:39;;;;;;;9.38;7.47;;;20.80;89.90;;;;;;4957360;28;92597;-71
2022/06/18 02:14:14;;;;;;;8.30;7.53;;;20.70;90.00;;;;;;4957528;28;93207;-71
2022/06/18 02:16:44;;;;;;;8.65;7.60;;;20.70;90.10;;;;;;4939470;28;98166;-71
2022/06/18 02:19:15;;;;;;;8.07;7.25;;;20.70;90.30;;;;;;4957163;28;97348;-71
2022/06/18 02:21:51;;;;;;;9.73;8.80;;;20.60;90.40;;;;;;4957183;28;92556;-71
2022/06/18 02:24:18;;;;;;;9.27;8.38;;;20.70;90.40;;;;;;4941214;28;92533;-71
2022/06/18 02:26:47;;;;;;;9.52;8.15;;;20.60;90.50;;;;;;4956864;28;93014;-71
2022/06/18 02:29:20;;;;;;;8.82;8.07;;;20.60;90.60;;;;;;4958568;28;92887;-71
2022/06/18 02:31:47;;;;;;;8.60;7.80;;;20.60;90.60;;;;;;4941044;28;93665;-71
2022/06/18 02:34:21;;;;;;;9.75;9.05;;;20.60;90.70;;;;;;4957540;28;91740;-71
2022/06/18 02:36:48;;;;;;;8.80;8.00;;;20.60;90.70;;;;;;4956728;28;95745;-71
2022/06/18 02:39:34;;;;;;;9.48;8.50;;;20.50;90.80;;;;;;4956667;28;95571;-71
2022/06/18 02:42:22;;;;;;;10.43;9.35;;;20.60;90.90;;;;;;4955903;28;94842;-71
2022/06/18 02:44:51;;;;;;;13.85;9.10;;;20.50;90.90;;;;;;4956878;28;92575;-71
2022/06/18 02:47:20;;;;;;;11.57;9.25;;;20.50;91.10;;;;;;4956817;28;95732;-71
2022/06/18 02:49:57;;;;;;;10.55;8.60;;;20.50;91.10;;;;;;4956275;28;95674;-71
2022/06/18 02:52:35;;;;;;;10.85;9.48;;;20.50;91.10;;;;;;4956919;28;92512;-71
2022/06/18 02:55:17;;;;;;;11.38;8.98;;;20.50;91.20;;;;;;4957234;28;92548;-71
2022/06/18 02:57:47;;;;;;;9.60;8.60;;;20.50;91.30;;;;;;4956410;28;95493;-71
2022/06/18 03:00:14;;;;;;;9.88;8.95;;;20.40;91.40;;;;;;4956760;28;95567;-71
2022/06/18 03:02:42;;;;;;;10.75;8.63;;;20.40;91.50;;;;;;4957409;28;92454;-71
2022/06/18 03:05:21;;;;;;;10.80;9.73;;;20.40;91.50;;;;;;4958134;28;92434;-71
2022/06/18 03:07:48;;;;;;;9.73;8.82;;;20.40;91.60;;;;;;4956648;28;95573;-71
2022/06/18 03:13:02;;;;;;;10.90;9.80;;;20.30;91.70;;;;;;4958062;28;92333;-71
2022/06/18 03:15:32;;;;;;;11.40;10.18;;;20.30;91.80;;;;;;4956748;28;92412;-71
2022/06/18 03:18:00;;;;;;;10.48;9.48;;;20.30;91.90;;;;;;4955744;28;95663;-71
2022/06/18 03:20:45;;;;;;;9.73;8.82;;;20.30;91.90;;;;;;4955873;28;95588;-71
2022/06/18 03:23:15;;;;;;;10.50;9.40;;;20.40;91.90;;;;;;4956447;28;92600;-71
2022/06/18 03:25:42;;;;;;;10.63;9.63;;;20.40;92.00;;;;;;4958100;28;91641;-71
2022/06/18 03:28:14;;;;;;;10.55;9.45;;;20.40;92.10;;;;;;4956147;28;95767;-71
2022/06/18 03:30:42;;;;;;;12.13;11.02;;;20.40;92.00;;;;;;4940098;28;95029;-71
2022/06/18 03:33:10;;;;;;;11.32;9.90;;;20.40;92.10;;;;;;4954692;28;94813;-71
2022/06/18 03:35:39;;;;;;;9.63;8.70;;;20.40;92.10;;;;;;4939866;28;92503;-71
2022/06/18 03:38:07;;;;;;;11.18;9.50;;;20.50;92.20;;;;;;4924119;28;95632;-71
2022/06/18 03:40:33;;;;;;;11.25;9.27;;;20.50;92.20;;;;;;4955986;28;95506;-71
2022/06/18 03:43:01;;;;;;;12.18;9.15;;;20.50;92.20;;;;;;4955959;28;92489;-71
2022/06/18 03:45:30;;;;;;;11.27;9.52;;;20.50;92.30;;;;;;4940040;28;92623;-71
2022/06/18 03:47:59;;;;;;;13.30;10.35;;;20.50;92.30;;;;;;4955504;28;96059;-71
2022/06/18 03:50:25;;;;;;;10.90;9.80;;;20.60;92.40;;;;;;4955723;28;95798;-71
2022/06/18 03:52:52;;;;;;;12.15;10.95;;;20.60;92.40;;;;;;4955808;28;92994;-71
2022/06/18 03:55:20;;;;;;;11.55;10.45;;;20.70;92.40;;;;;;4955465;28;92938;-71
2022/06/18 03:57:47;;;;;;;12.23;10.27;;;20.90;92.20;;;;;;4953635;28;97896;-71
2022/06/18 04:00:19;;;;;;;10.73;9.75;;;21.10;92.10;;;;;;4955004;28;98514;-71
2022/06/18 04:02:52;;;;;;;12.02;10.45;;;21.20;91.90;;;;;;4955336;28;92899;-71
2022/06/18 04:05:19;;;;;;;10.98;9.45;;;21.30;91.80;;;;;;4939124;28;92458;-71
2022/06/18 04:07:46;;;;;;;10.95;9.85;;;21.40;91.70;;;;;;4939411;28;95549;-71
2022/06/18 04:10:36;;;;;;;12.07;10.25;;;21.50;91.70;;;;;;4956034;28;93082;-71
2022/06/18 04:13:03;;;;;;;11.80;10.38;;;21.50;91.70;;;;;;4938745;28;92531;-71
2022/06/18 04:15:49;;;;;;;12.27;9.95;;;21.60;91.70;;;;;;4954683;28;91698;-71
2022/06/18 04:18:24;;;;;;;11.15;10.07;;;21.60;91.70;;;;;;4940574;28;94391;-71
2022/06/18 04:20:53;;;;;;;11.43;10.40;;;21.60;91.70;;;;;;4954744;28;94390;-71
2022/06/18 04:23:22;;;;;;;11.57;9.68;;;21.70;91.70;;;;;;4953727;28;94781;-71
2022/06/18 04:25:49;;;;;;;12.43;11.13;;;21.70;91.70;;;;;;4955545;28;92614;-71
2022/06/18 04:28:18;;;;;;;11.75;10.55;;;21.70;91.70;;;;;;4954666;28;95619;-71
2022/06/18 04:31:01;;;;;;;12.60;11.30;;;21.80;91.70;;;;;;4954141;28;95240;-71
2022/06/18 04:33:39;;;;;;;14.35;10.88;;;21.80;91.80;;;;;;4939801;28;92387;-71
2022/06/18 04:36:37;;;;;;;13.20;10.27;;;21.80;91.80;;;;;;4955603;28;92457;-71
2022/06/18 04:39:24;;;;;;;16.45;12.73;;;21.90;91.90;;;;;;4955229;28;92828;-70
2022/06/18 04:41:59;;;;;;;14.75;11.40;;;21.80;92.00;;;;;;4954710;28;95803;-71
2022/06/18 04:44:27;;;;;;;12.38;11.10;;;21.90;92.10;;;;;;4954796;28;92552;-71
2022/06/18 04:47:03;;;;;;;14.10;12.65;;;21.90;92.10;;;;;;4954408;28;92476;-71
2022/06/18 04:49:31;;;;;;;14.45;12.93;;;21.90;92.10;;;;;;4953125;28;97967;-71
2022/06/18 04:51:58;;;;;;;15.57;12.30;;;22.00;92.10;;;;;;4954091;28;97919;-71
2022/06/18 04:54:37;;;;;;;13.82;12.32;;;22.00;92.10;;;;;;4970694;28;93112;-71
2022/06/18 04:57:06;;;;;;;13.27;11.50;;;22.10;92.10;;;;;;4954628;28;92544;-71
2022/06/18 04:59:35;;;;;;;15.27;12.73;;;22.10;92.10;;;;;;4954424;28;95536;-71
2022/06/18 05:02:13;;;;;;;16.05;13.00;;;22.20;92.20;;;;;;4937463;28;95479;-71
2022/06/18 05:04:58;;;;;;;15.77;12.73;;;22.20;92.20;;;;;;4954521;28;92508;-71
2022/06/18 05:07:39;;;;;;;15.45;13.80;;;22.20;92.30;;;;;;4954847;28;91771;-71
2022/06/18 05:10:38;;;;;;;18.50;15.60;;;22.30;92.20;;;;;;4932457;28;92577;-71
2022/06/18 05:13:12;;;;;;;16.55;13.52;;;22.20;92.30;;;;;;4953772;28;95008;-71
2022/06/18 05:15:57;;;;;;;22.80;14.63;;;22.20;92.40;;;;;;4952958;28;94868;-71
2022/06/18 05:18:27;;;;;;;18.65;14.77;;;22.10;92.50;;;;;;4938105;28;92626;-71
2022/06/18 05:20:57;;;;;;;19.75;15.45;;;22.20;92.60;;;;;;4954190;28;95634;-71
2022/06/18 05:23:26;;;;;;;18.25;15.55;;;22.20;92.60;;;;;;4954031;28;94138;-71
2022/06/18 05:25:59;;;;;;;19.13;13.35;;;22.20;92.50;;;;;;4954003;28;92635;-71
2022/06/18 05:28:27;;;;;;;22.20;15.00;;;22.30;92.50;;;;;;4954141;28;92411;-71
2022/06/18 05:30:54;;;;;;;16.70;15.02;;;22.40;92.40;;;;;;4953946;28;95692;-71
2022/06/18 05:33:23;;;;;;;17.27;14.52;;;22.60;92.20;;;;;;4954042;28;94214;-71
2022/06/18 05:35:52;;;;;;;18.75;14.00;;;22.70;92.00;;;;;;4954003;28;92437;-70
2022/06/18 05:38:21;;;;;;;20.33;15.35;;;22.80;91.80;;;;;;4937821;28;92563;-71
2022/06/18 05:40:48;;;;;;;15.85;14.00;;;22.90;91.70;;;;;;4952628;28;97984;-71
2022/06/18 05:43:15;;;;;;;18.30;15.02;;;23.10;91.40;;;;;;4954356;28;98170;-71
2022/06/18 05:45:43;;;;;;;24.00;16.70;;;23.20;91.30;;;;;;4957330;28;92987;-71
2022/06/18 05:48:11;;;;;;;17.25;15.13;;;23.30;91.10;;;;;;4957241;28;92502;-71
2022/06/18 05:50:39;;;;;;;19.00;15.10;;;23.40;90.90;;;;;;4957295;28;95549;-71
2022/06/18 05:53:06;;;;;;;17.88;16.08;;;23.50;90.90;;;;;;4956482;28;102648;-71
2022/06/18 05:55:51;;;;;;;18.77;16.45;;;23.50;90.80;;;;;;4956133;28;92789;-71
2022/06/18 05:58:41;;;;;;;18.30;16.10;;;23.40;90.70;;;;;;4939321;28;91951;-71
2022/06/18 06:01:22;;;;;;;16.33;14.15;;;23.30;90.80;;;;;;4956581;28;94486;-71
2022/06/18 06:03:49;;;;;;;17.98;14.77;;;23.40;90.70;;;;;;4956939;28;95128;-71
2022/06/18 06:06:17;;;;;;;19.10;15.45;;;23.60;90.60;;;;;;4955756;28;94897;-71
2022/06/18 06:08:47;;;;;;;23.08;16.02;;;23.70;90.50;;;;;;4956982;28;92443;-71
2022/06/18 06:11:28;;;;;;;17.85;15.05;;;23.80;90.30;;;;;;4958316;28;92865;-71
2022/06/18 06:13:58;;;;;;;19.35;16.23;;;23.90;90.00;;;;;;4942624;28;95333;-71
2022/06/18 06:16:26;;;;;;;19.13;14.98;;;23.90;89.60;;;;;;4956792;28;92530;-71
2022/06/18 06:18:53;;;;;;;26.55;18.30;;;24.00;89.00;;;;;;4956924;28;92469;-71
2022/06/18 06:21:20;;;;;;;20.85;16.00;;;23.90;88.80;;;;;;4957919;28;93154;-71
2022/06/18 06:23:47;;;;;;;21.38;16.63;;;23.80;89.00;;;;;;4956893;28;95735;-71
2022/06/18 06:26:21;;;;;;;23.05;15.85;;;23.70;89.60;;;;;;4956434;28;97049;-71
2022/06/18 06:28:48;;;;;;;20.63;16.80;;;23.70;89.90;;;;;;4958305;28;92389;-71
2022/06/18 06:31:16;;;;;;;21.88;15.48;;;23.60;89.80;;;;;;4971473;28;95635;-71
2022/06/18 06:33:43;;;;;;;18.17;16.40;;;23.70;89.80;;;;;;4956160;28;97932;-71
2022/06/18 06:36:12;;;;;;;19.55;15.55;;;23.70;89.40;;;;;;4957760;28;92343;-71
2022/06/18 06:38:39;;;;;;;19.83;15.35;;;23.70;89.10;;;;;;4940476;28;93128;-71
2022/06/18 06:41:17;;;;;;;23.00;14.85;;;23.70;89.00;;;;;;4956479;28;93106;-71
2022/06/18 06:43:44;;;;;;;19.73;15.20;;;23.80;89.10;;;;;;4957925;28;92362;-71
2022/06/18 06:46:13;;;;;;;21.20;14.32;;;23.80;89.00;;;;;;4956289;28;92728;-71
2022/06/18 06:48:41;;;;;;;23.10;15.23;;;24.00;88.40;;;;;;4940592;28;91743;-71
2022/06/18 06:51:15;;;;;;;19.95;14.82;;;24.00;88.90;;;;;;4957877;28;93400;-71
2022/06/18 06:53:42;;;;;;;20.05;15.68;;;24.10;88.30;;;;;;4956036;28;95941;-71
2022/06/18 06:58:57;;;;;;;19.63;14.65;;;24.20;88.30;;;;;;4956200;28;92569;-71
2022/06/18 07:01:24;;;;;;;15.98;14.23;;;24.20;88.90;;;;;;4957023;28;93344;-71
2022/06/18 07:03:51;;;;;;;18.88;14.93;;;24.20;88.10;;;;;;4939739;28;96366;-71
2022/06/18 07:06:19;;;;;;;18.15;14.52;;;24.30;88.00;;;;;;4957384;28;92450;-71
2022/06/18 07:08:47;;;;;;;17.65;15.10;;;24.10;87.90;;;;;;4957574;28;93011;-71
2022/06/18 07:11:15;;;;;;;21.85;16.55;;;24.10;87.90;;;;;;4956292;28;93407;-71
2022/06/18 07:13:42;;;;;;;19.00;15.68;;;24.10;88.30;;;;;;4957434;28;95024;-71
2022/06/18 07:16:11;;;;;;;21.60;14.45;;;24.20;88.60;;;;;;4956268;28;92530;-71
2022/06/18 07:18:40;;;;;;;17.38;13.43;;;24.30;88.00;;;;;;4955876;28;92447;-71
2022/06/18 07:21:10;;;;;;;21.17;14.07;;;24.30;87.90;;;;;;4955714;28;108751;-71
2022/06/18 07:23:37;;;;;;;20.17;13.48;;;24.40;87.40;;;;;;4955441;28;98132;-71
2022/06/18 07:26:05;;;;;;;23.02;13.90;;;24.50;86.70;;;;;;4957222;28;92444;-71
2022/06/18 07:28:38;;;;;;;19.23;13.20;;;24.60;86.50;;;;;;4955576;28;92587;-71
2022/06/18 07:31:05;;;;;;;19.98;12.85;;;24.80;86.70;;;;;;4972059;28;95799;-71
2022/06/18 07:33:35;;;;;;;16.80;12.73;;;24.90;85.50;;;;;;4956776;28;93036;-71
2022/06/18 07:36:02;;;;;;;16.80;13.18;;;25.00;85.70;;;;;;4955612;28;92418;-71
2022/06/18 07:38:29;;;;;;;16.05;12.50;;;25.00;85.20;;;;;;4939641;28;92007;-71
2022/06/18 07:40:56;;;;;;;13.60;11.15;;;25.10;84.80;;;;;;4939184;28;94225;-71
2022/06/18 07:43:36;;;;;;;15.57;9.90;;;25.20;85.00;;;;;;4955182;28;93035;-71
2022/06/18 07:46:05;;;;;;;13.70;8.30;;;25.30;84.70;;;;;;4956297;28;94797;-71
2022/06/18 07:48:33;;;;;;;13.10;9.63;;;25.30;83.60;;;;;;4957163;28;92482;-71
2022/06/18 07:51:01;;;;;;;13.70;8.40;;;25.50;82.90;;;;;;4939554;28;95700;-71
2022/06/18 07:53:28;;;;;;;13.27;9.70;;;25.50;82.20;;;;;;4939481;28;95476;-71
2022/06/18 07:55:56;;;;;;;11.70;6.68;;;25.70;81.70;;;;;;4939643;28;92533;-71
2022/06/18 07:58:24;;;;;;;11.80;5.93;;;25.70;81.60;;;;;;4956815;28;92490;-71
2022/06/18 08:00:51;;;;;;;12.70;8.07;;;25.90;81.10;;;;;;4955845;28;93309;-71
2022/06/18 08:03:18;;;;;;;12.40;6.38;;;25.90;80.10;;;;;;4939727;28;92958;-71
2022/06/18 08:06:14;;;;;;;9.30;5.60;;;26.10;80.70;;;;;;4939704;28;92886;-71
2022/06/18 08:08:42;;;;;;;10.85;6.13;;;26.30;80.10;;;;;;4938441;28;92536;-71
2022/06/18 08:11:29;;;;;;;10.27;5.70;;;26.50;80.20;;;;;;4955980;28;95488;-71
2022/06/18 08:13:58;;;;;;;9.27;6.70;;;27.30;77.90;;;;;;4955792;28;95410;-71
2022/06/18 08:16:25;;;;;;;9.48;6.30;;;27.80;77.40;;;;;;4955411;28;92459;-71
2022/06/18 08:18:52;;;;;;;14.40;6.55;;;28.70;75.50;;;;;;4955490;28;92521;-71
2022/06/18 08:21:26;;;;;;;11.93;6.43;;;29.50;72.70;;;;;;4955530;28;93340;-71
2022/06/18 08:23:57;;;;;;;9.10;6.05;;;30.40;70.90;;;;;;4956980;28;92962;-72
2022/06/18 08:26:25;;;;;;;8.75;5.25;;;31.30;68.30;;;;;;4956882;28;92408;-72
2022/06/18 08:28:52;;;;;;;7.45;5.50;;;31.80;65.30;;;;;;4957275;28;91685;-72
2022/06/18 08:31:26;;;;;;;7.10;5.95;;;32.30;62.90;;;;;;4956291;28;93393;-72
2022/06/18 08:33:54;;;;;;;7.68;4.88;;;32.80;62.20;;;;;;4954837;28;103751;-72
2022/06/18 08:36:21;;;;;;;8.00;6.00;;;33.50;60.00;;;;;;4955587;28;94863;-72
2022/06/18 08:38:49;;;;;;;8.27;6.47;;;34.10;58.40;;;;;;4955011;28;92527;-72
2022/06/18 08:41:54;;;;;;;8.25;5.60;;;34.70;56.70;;;;;;4955221;28;94202;-72
2022/06/18 08:44:40;;;;;;;8.50;5.28;;;35.20;54.40;;;;;;4955380;28;93010;-72
2022/06/18 08:47:46;;;;;;;7.88;4.82;;;35.50;53.30;;;;;;4956634;28;92417;-72
2022/06/18 08:50:31;;;;;;;8.27;5.57;;;35.60;52.90;;;;;;4956449;28;92494;-72
2022/06/18 08:53:42;;;;;;;6.28;5.20;;;35.30;53.10;;;;;;4954911;28;94292;-72
2022/06/18 08:56:33;;;;;;;7.38;5.40;;;35.50;51.70;;;;;;4956772;28;92928;-72
2022/06/18 08:59:39;;;;;;;8.02;5.18;;;35.20;52.40;;;;;;4955012;28;92431;-72
2022/06/18 09:02:33;;;;;;;9.23;5.35;;;35.30;52.30;;;;;;4971275;28;92483;-72
2022/06/18 09:05:42;;;;;;;7.57;6.53;;;35.20;51.60;;;;;;4953929;28;95704;-72
2022/06/18 09:08:30;;;;;;;7.57;5.80;;;34.90;52.30;;;;;;4954910;28;95465;-72
2022/06/18 09:11:04;;;;;;;7.90;5.85;;;34.70;52.60;;;;;;4956359;28;92430;-72
2022/06/18 09:14:01;;;;;;;9.82;6.72;;;34.20;53.10;;;;;;4956138;28;92508;-72
2022/06/18 09:16:46;;;;;;;7.05;6.07;;;34.20;53.60;;;;;;4956268;28;93227;-72
2022/06/18 09:19:18;;;;;;;10.95;6.50;;;33.60;54.70;;;;;;4954503;28;93000;-72
2022/06/18 09:21:51;;;;;;;;;;;33.10;55.80;;;;;;4955128;28;93339;-71
2022/06/18 09:24:31;;;;;;;9.00;6.18;;;32.40;57.40;;;;;;4989215;28;91937;-71
2022/06/18 09:27:04;;;;;;;8.55;5.63;;;31.80;58.40;;;;;;4954562;28;94315;-72
2022/06/18 09:29:38;;;;;;;7.97;6.25;;;31.50;59.60;;;;;;4954488;28;95687;-71
2022/06/18 09:32:40;;;;;;;8.38;5.47;;;31.20;60.10;;;;;;4955001;28;94765;-71
2022/06/18 09:35:22;;;;;;;11.30;5.70;;;30.90;60.80;;;;;;4948788;28;92911;-72
2022/06/18 09:37:57;;;;;;;7.72;5.32;;;30.60;61.60;;;;;;4954451;28;93250;-72
2022/06/18 09:40:30;;;;;;;7.75;5.10;;;30.50;62.20;;;;;;4938278;28;95487;-72
2022/06/18 09:43:32;;;;;;;10.77;7.25;;;30.40;62.70;;;;;;4954398;28;92494;-72
2022/06/18 09:46:04;;;;;;;7.70;5.20;;;30.30;62.90;;;;;;4954471;28;92395;-71
2022/06/18 09:48:31;;;;;;;9.63;5.32;;;30.00;64.10;;;;;;4970618;28;93406;-71
2022/06/18 09:51:03;;;;;;;10.10;6.63;;;29.90;63.90;;;;;;4954706;28;93015;-71
2022/06/18 09:53:37;;;;;;;8.43;5.57;;;29.90;63.90;;;;;;4955815;28;92505;-71
2022/06/18 09:56:17;;;;;;;8.68;5.03;;;29.80;64.80;;;;;;4954641;28;92621;-71
2022/06/18 09:58:57;;;;;;;9.57;4.85;;;29.70;66.10;;;;;;4953641;28;95600;-72
2022/06/18 10:01:34;;;;;;;8.38;4.72;;;29.70;65.30;;;;;;4953729;28;97899;-71
2022/06/18 10:06:58;;;;;;;6.78;3.53;;;29.50;65.50;;;;;;4953946;28;93316;-72
2022/06/18 10:09:48;;;;;;;7.35;4.35;;;29.40;65.50;;;;;;4954419;28;93125;-71
2022/06/18 10:12:17;;;;;;;6.05;4.32;;;29.40;64.70;;;;;;4955496;28;93024;-71
2022/06/18 10:14:55;;;;;;;6.82;4.00;;;29.40;64.70;;;;;;4955175;28;92518;-71
2022/06/18 10:17:58;;;;;;;5.05;3.88;;;29.40;65.00;;;;;;4956243;28;91714;-71
2022/06/18 10:20:44;;;;;;;7.93;3.83;;;29.40;65.00;;;;;;4955407;28;93203;-71
2022/06/18 10:23:29;;;;;;;6.85;4.13;;;29.40;65.30;;;;;;4955207;28;93057;-71
2022/06/18 10:26:09;;;;;;;4.65;3.78;;;29.40;65.50;;;;;;4954091;28;94833;-71
2022/06/18 10:28:48;;;;;;;4.40;3.20;;;29.20;65.90;;;;;;4955525;28;92448;-71
2022/06/18 10:31:29;;;;;;;7.88;3.75;;;29.10;66.00;;;;;;4956147;28;95831;-71
2022/06/18 10:34:28;;;;;;;5.78;3.38;;;29.10;66.70;;;;;;4958377;28;93038;-71
2022/06/18 10:37:09;;;;;;;4.57;3.08;;;29.10;67.20;;;;;;4957015;28;92872;-71
2022/06/18 10:40:03;;;;;;;6.70;3.95;;;29.20;67.10;;;;;;4958436;28;92457;-72
2022/06/18 10:42:39;;;;;;;5.30;3.85;;;29.00;67.10;;;;;;4956884;28;94267;-71
2022/06/18 10:45:23;;;;;;;4.25;2.55;;;29.00;67.00;;;;;;4958650;28;93052;-71
2022/06/18 10:47:53;;;;;;;6.32;4.88;;;29.20;67.70;;;;;;4957038;28;93111;-71
2022/06/18 10:50:23;;;;;;;4.53;2.97;;;29.00;68.10;;;;;;4940774;28;92568;-71
2022/06/18 10:52:59;;;;;;;3.70;3.00;;;28.80;68.80;;;;;;4955081;28;98211;-71
2022/06/18 10:55:27;;;;;;;4.35;2.83;;;28.90;68.70;;;;;;4958257;28;95734;-71
2022/06/18 10:58:04;;;;;;;4.70;4.30;;;28.90;68.70;;;;;;4956647;28;94614;-71
2022/06/18 11:00:31;;;;;;;5.03;4.03;;;28.90;69.20;;;;;;4958416;28;92595;-71
2022/06/18 11:03:02;;;;;;;5.35;3.17;;;28.80;69.70;;;;;;4957386;28;93069;-71
2022/06/18 11:05:33;;;;;;;4.35;3.17;;;28.70;70.30;;;;;;4956547;28;95793;-71
2022/06/18 11:08:05;;;;;;;4.93;2.90;;;28.80;70.00;;;;;;4958154;28;93103;-71
2022/06/18 11:10:34;;;;;;;3.58;2.67;;;29.00;69.60;;;;;;4958547;28;92304;-71
2022/06/18 11:13:04;;;;;;;5.45;3.40;;;29.20;69.60;;;;;;4956056;28;94335;-71
2022/06/18 11:15:37;;;;;;;3.80;3.17;;;29.10;70.20;;;;;;4956551;28;93079;-71
2022/06/18 11:18:13;;;;;;;3.55;2.50;;;29.00;69.70;;;;;;4955045;28;94824;-71
2022/06/18 11:21:00;;;;;;;3.88;3.58;;;29.00;69.70;;;;;;4958199;28;92918;-71
2022/06/18 11:23:27;;;;;;;4.18;3.28;;;29.00;70.00;;;;;;4956359;28;95817;-71
2022/06/18 11:26:10;;;;;;;3.40;2.58;;;28.90;70.40;;;;;;4926434;28;95617;-71
2022/06/18 11:28:41;;;;;;;;;;;28.90;70.10;;;;;;4973158;28;92552;-71
2022/06/18 11:31:13;;;;;;;2.95;2.20;;;28.90;70.70;;;;;;4958970;28;92431;-71
2022/06/18 11:33:42;;;;;;;3.38;2.88;;;28.90;71.00;;;;;;4940673;28;95613;-72
2022/06/18 11:36:15;;;;;;;2.60;2.33;;;29.00;69.90;;;;;;4957515;28;93113;-71
2022/06/18 11:38:53;;;;;;;4.78;3.20;;;29.20;69.10;;;;;;4957858;28;92373;-71
2022/06/18 11:41:38;;;;;;;3.22;2.50;;;29.40;69.10;;;;;;4956155;28;92559;-71
2022/06/18 11:44:17;;;;;;;5.97;2.97;;;29.40;69.50;;;;;;4954923;28;95869;-71
2022/06/18 11:46:54;;;;;;;5.95;2.75;;;29.30;69.90;;;;;;4939495;28;97981;-71
2022/06/18 11:49:29;;;;;;;3.40;3.10;;;29.20;69.60;;;;;;4955878;28;92429;-71
2022/06/18 11:52:13;;;;;;;3.28;1.88;;;29.10;69.70;;;;;;4957436;28;92380;-71
2022/06/18 11:54:57;;;;;;;2.17;1.98;;;29.20;70.00;;;;;;4955899;28;95687;-71
2022/06/18 11:57:41;;;;;;;3.00;2.70;;;29.20;69.70;;;;;;4957329;28;93078;-71
2022/06/18 12:00:20;;;;;;;3.53;2.40;;;29.20;69.30;;;;;;4955703;28;92569;-71
2022/06/18 12:03:05;;;;;;;2.58;2.33;;;29.30;69.20;;;;;;4956139;28;91780;-72
2022/06/18 12:05:40;;;;;;;3.33;2.15;;;29.50;69.20;;;;;;4939412;28;95772;-71
2022/06/18 12:08:08;;;;;;;3.15;1.80;;;29.50;68.80;;;;;;4971948;28;93020;-71
2022/06/18 12:10:47;;;;;;;2.58;1.88;;;29.60;68.10;;;;;;4954490;28;94766;-71
2022/06/18 12:13:48;;;;;;;2.97;2.78;;;29.70;68.50;;;;;;4955614;28;92532;-71
2022/06/18 12:16:36;;;;;;;3.47;1.92;;;29.90;68.40;;;;;;4956729;28;93152;-71
2022/06/18 12:19:15;;;;;;;;;;;30.00;67.40;;;;;;4957131;28;92939;-72
2022/06/18 12:22:08;;;;;;;4.38;2.00;;;29.90;67.70;;;;;;4958144;28;92491;-72
2022/06/18 12:24:53;;;;;;;4.50;2.35;;;30.00;66.80;;;;;;4944213;28;93238;-71
2022/06/18 12:27:25;;;;;;;2.63;1.70;;;30.00;66.90;;;;;;4955122;28;94419;-72
2022/06/18 12:30:02;;;;;;;6.40;2.50;;;30.10;65.90;;;;;;4955452;28;95705;-71
2022/06/18 12:32:59;;;;;;;3.45;2.53;;;30.20;65.80;;;;;;4939279;28;92637;-72
2022/06/18 12:35:44;;;;;;;3.00;2.25;;;30.30;66.20;;;;;;4956778;28;92444;-72
2022/06/18 12:38:35;;;;;;;4.93;1.90;;;30.40;66.70;;;;;;4953614;28;98063;-71
2022/06/18 12:41:12;;;;;;;2.17;1.35;;;30.40;66.20;;;;;;4955087;28;95439;-71
2022/06/18 12:44:03;;;;;;;2.63;2.42;;;30.30;66.40;;;;;;4949242;28;92494;-71
2022/06/18 12:46:38;;;;;;;2.80;1.80;;;30.50;66.80;;;;;;4937370;28;92363;-71
2022/06/18 12:49:14;;;;;;;4.22;2.63;;;30.50;66.60;;;;;;4936934;28;93182;-72
2022/06/18 12:51:51;;;;;;;3.22;2.70;;;30.70;65.40;;;;;;4936985;28;93025;-72
2022/06/18 12:54:28;;;;;;;2.78;1.85;;;30.70;65.20;;;;;;4936053;28;92486;-71
2022/06/18 12:57:10;;;;;;;3.22;1.80;;;30.80;64.70;;;;;;4935856;28;97579;-71
2022/06/18 12:59:55;;;;;;;3.58;2.42;;;31.10;64.00;;;;;;4936799;28;93320;-72
2022/06/18 13:02:31;;;;;;;3.97;1.85;;;31.10;63.80;;;;;;4936194;28;93096;-71
2022/06/18 13:05:20;;;;;;;2.80;2.60;;;31.00;63.70;;;;;;4935915;28;94860;-72
2022/06/18 13:08:23;;;;;;;3.33;1.63;;;31.00;64.60;;;;;;4937000;28;92356;-71
2022/06/18 13:11:25;;;;;;;3.78;2.50;;;30.90;64.80;;;;;;4934917;28;93418;-72
2022/06/18 13:14:10;;;;;;;3.67;2.58;;;30.80;65.10;;;;;;4921763;28;93188;-71
2022/06/18 13:17:04;;;;;;;3.78;2.88;;;30.80;64.90;;;;;;4951904;28;92933;-71
2022/06/18 13:19:38;;;;;;;4.25;1.85;;;30.80;64.60;;;;;;4936923;28;92362;-71
2022/06/18 13:22:06;;;;;;;2.17;2.05;;;30.70;64.40;;;;;;4936462;28;93378;-71
2022/06/18 13:30:29;;;;;;;3.05;2.30;;;30.50;66.40;;;;;;4934876;28;92500;-71
2022/06/18 13:33:06;;;;;;;4.53;3.78;;;30.50;66.30;;;;;;4933843;28;98132;-72
2022/06/18 13:36:03;;;;;;;3.88;2.38;;;30.50;65.80;;;;;;4934463;28;99827;-71
2022/06/18 13:38:47;;;;;;;3.88;2.15;;;30.20;65.80;;;;;;4936844;28;92434;-71